Time;durP1;ratioP1;P1;durP2;ratioP2;P2;SDS_P1;SDS_P2;PMS_P1;PMS_P2;Temp;Humidity;BMP_temperature;BMP_pressure;BME280_temperature;BME280_humidity;BME280_pressure;Samples;Min_cycle;Max_cycle;Signal;HPM_P1;HPM_P2
2023/09/15 00:01:30;;;;;;;;;;;11.40;99.90;;;;;;4934694;29;19984;-83
2023/09/15 00:03:55;;;;;;;;;;;11.50;99.90;;;;;;4935013;29;20405;-83
2023/09/15 00:06:21;;;;;;;;;;;11.40;99.90;;;;;;4932686;29;19937;-83
2023/09/15 00:08:47;;;;;;;;;;;11.40;99.90;;;;;;4934815;28;19930;-83
2023/09/15 00:11:16;;;;;;;;;;;11.30;99.90;;;;;;4933310;29;19962;-86
2023/09/15 00:13:42;;;;;;;;;;;11.30;99.90;;;;;;4934997;29;20009;-83
2023/09/15 00:16:08;;;;;;;;;;;11.30;99.90;;;;;;4933827;29;20053;-83
2023/09/15 00:18:33;;;;;;;;;;;11.30;99.90;;;;;;4934622;29;20279;-83
2023/09/15 00:20:59;;;;;;;;;;;11.30;99.90;;;;;;4932576;28;20290;-83
2023/09/15 00:23:24;;;;;;;;;;;11.30;99.90;;;;;;4934452;29;19926;-83
2023/09/15 00:25:54;;;;;;;;;;;11.30;99.90;;;;;;4934639;29;19931;-83
2023/09/15 00:28:20;;;;;;;;;;;11.20;99.90;;;;;;4917900;29;19927;-83
2023/09/15 00:30:45;;;;;;;;;;;11.20;99.90;;;;;;4934005;29;20006;-83
2023/09/15 00:33:11;;;;;;;;;;;11.20;99.90;;;;;;4933595;29;19942;-84
2023/09/15 00:35:36;;;;;;;;;;;11.10;99.90;;;;;;4931793;29;19927;-86
2023/09/15 00:38:03;;;;;;;;;;;11.10;99.90;;;;;;4932880;29;19931;-82
2023/09/15 00:40:28;;;;;;;;;;;11.10;99.90;;;;;;4933469;28;19926;-84
2023/09/15 00:42:54;;;;;;;;;;;11.00;99.90;;;;;;4933342;28;19977;-83
2023/09/15 00:45:21;;;;;;;;;;;11.00;99.90;;;;;;4938183;29;19937;-83
2023/09/15 00:47:52;;;;;;;;;;;11.00;99.90;;;;;;4933020;29;19949;-83
2023/09/15 00:50:20;;;;;;;;;;;11.00;99.90;;;;;;4933695;29;19927;-83
2023/09/15 00:52:51;;;;;;;;;;;10.90;99.90;;;;;;4932825;29;19927;-84
2023/09/15 00:55:19;;;;;;;;;;;11.00;99.90;;;;;;4934235;29;19927;-83
2023/09/15 00:57:45;;;;;;;;;;;10.90;99.90;;;;;;4930649;28;19973;-83
2023/09/15 01:00:13;;;;;;;;;;;10.90;99.90;;;;;;4933214;29;19982;-83
2023/09/15 01:02:39;;;;;;;;;;;10.90;99.90;;;;;;4933840;29;19949;-83
2023/09/15 01:05:06;;;;;;;;;;;10.80;99.90;;;;;;4933550;29;20437;-83
2023/09/15 01:07:32;;;;;;;;;;;10.80;99.90;;;;;;4934074;29;19927;-83
2023/09/15 01:09:57;;;;;;;;;;;10.80;99.90;;;;;;4932530;29;19939;-84
2023/09/15 01:12:23;;;;;;;;;;;10.80;99.90;;;;;;4932256;28;20350;-83
2023/09/15 01:14:49;;;;;;;;;;;10.70;99.90;;;;;;4934037;29;19927;-83
2023/09/15 01:17:25;;;;;;;;;;;10.80;99.90;;;;;;4933791;29;20243;-82
2023/09/15 01:20:10;;;;;;;;;;;10.70;99.90;;;;;;4933752;29;19942;-82
2023/09/15 01:22:51;;;;;;;;;;;10.70;99.90;;;;;;4932874;29;19927;-82
2023/09/15 01:25:20;;;;;;;;;;;10.70;99.90;;;;;;4933641;29;19927;-82
2023/09/15 01:27:54;;;;;;;;;;;10.70;99.90;;;;;;4932807;28;19926;-83
2023/09/15 01:30:21;;;;;;;;;;;10.70;99.90;;;;;;4933117;29;19927;-87
2023/09/15 01:32:50;;;;;;;;;;;10.70;99.90;;;;;;4933709;29;19976;-83
2023/09/15 01:35:15;;;;;;;;;;;10.70;99.90;;;;;;4931403;29;20382;-82
2023/09/15 01:37:41;;;;;;;;;;;10.60;99.90;;;;;;4929108;28;19943;-82
2023/09/15 01:40:07;;;;;;;;;;;10.60;99.90;;;;;;4909232;28;19938;-82
2023/09/15 01:42:32;;;;;;;;;;;10.70;99.90;;;;;;4933320;29;20309;-84
2023/09/15 01:44:58;;;;;;;;;;;10.60;99.90;;;;;;4938974;29;19938;-83
2023/09/15 01:47:25;;;;;;;;;;;10.60;99.90;;;;;;4932541;28;19927;-82
2023/09/15 01:49:52;;;;;;;;;;;10.60;99.90;;;;;;4932365;29;19931;-83
2023/09/15 01:52:18;;;;;;;;;;;10.60;99.90;;;;;;4933285;29;19931;-83
2023/09/15 01:54:43;;;;;;;;;;;10.60;99.90;;;;;;4933193;28;20296;-83
2023/09/15 01:57:09;;;;;;;;;;;10.50;99.90;;;;;;4932188;29;19927;-84
2023/09/15 01:59:35;;;;;;;;;;;10.50;99.90;;;;;;4931749;28;19993;-83
2023/09/15 02:02:00;;;;;;;;;;;10.50;99.90;;;;;;4933042;29;20021;-84
2023/09/15 02:04:26;;;;;;;;;;;10.50;99.90;;;;;;4931542;29;19985;-82
2023/09/15 02:06:51;;;;;;;;;;;10.40;99.90;;;;;;4931533;29;20400;-83
2023/09/15 02:09:17;;;;;;;;;;;10.40;99.90;;;;;;4931178;28;19931;-83
2023/09/15 02:11:43;;;;;;;;;;;10.40;99.90;;;;;;4932213;28;19930;-83
2023/09/15 02:14:09;;;;;;;;;;;10.40;99.90;;;;;;4931699;29;19996;-83
2023/09/15 02:16:35;;;;;;;;;;;10.40;99.90;;;;;;4932156;29;19934;-83
2023/09/15 02:19:01;;;;;;;;;;;10.40;99.90;;;;;;4941793;29;19930;-83
2023/09/15 02:21:26;;;;;;;;;;;10.40;99.90;;;;;;4935957;28;19927;-83
2023/09/15 02:23:52;;;;;;;;;;;10.30;99.90;;;;;;4932044;29;20277;-84
2023/09/15 02:26:17;;;;;;;;;;;10.30;99.90;;;;;;4932825;29;20449;-82
2023/09/15 02:28:43;;;;;;;;;;;10.30;99.90;;;;;;4933027;28;19926;-82
2023/09/15 02:31:09;;;;;;;;;;;10.30;99.90;;;;;;4932579;29;19938;-84
2023/09/15 02:33:37;;;;;;;;;;;10.30;99.90;;;;;;4931927;29;20477;-82
2023/09/15 02:36:03;;;;;;;;;;;10.30;99.90;;;;;;4924691;29;20394;-83
2023/09/15 02:38:29;;;;;;;;;;;10.30;99.90;;;;;;4927582;29;19933;-83
2023/09/15 02:40:54;;;;;;;;;;;10.30;99.90;;;;;;4932607;29;19927;-82
2023/09/15 02:43:20;;;;;;;;;;;10.20;99.90;;;;;;4931530;29;20040;-83
2023/09/15 02:45:46;;;;;;;;;;;10.20;99.90;;;;;;4931087;29;19970;-84
2023/09/15 02:48:12;;;;;;;;;;;10.20;99.90;;;;;;4931796;29;19946;-82
2023/09/15 02:50:41;;;;;;;;;;;10.20;99.90;;;;;;4932623;29;19927;-83
2023/09/15 02:53:07;;;;;;;;;;;10.20;99.90;;;;;;4932772;28;19938;-83
2023/09/15 02:55:32;;;;;;;;;;;10.10;99.90;;;;;;4931627;28;19927;-84
2023/09/15 02:57:58;;;;;;;;;;;10.20;99.90;;;;;;4930744;29;19927;-83
2023/09/15 03:00:23;;;;;;;;;;;10.10;99.90;;;;;;4931072;28;19931;-83
2023/09/15 03:02:49;;;;;;;;;;;10.10;99.90;;;;;;4931519;28;19927;-82
2023/09/15 03:05:15;;;;;;;;;;;10.10;99.90;;;;;;4932554;29;19927;-83
2023/09/15 03:07:40;;;;;;;;;;;10.10;99.90;;;;;;4931630;29;19931;-83
2023/09/15 03:10:07;;;;;;;;;;;10.00;99.90;;;;;;4930494;29;19927;-83
2023/09/15 03:12:33;;;;;;;;;;;10.00;99.90;;;;;;4932140;29;19966;-89
2023/09/15 03:14:59;;;;;;;;;;;10.00;99.90;;;;;;4949479;28;20396;-83
2023/09/15 03:17:25;;;;;;;;;;;10.00;99.90;;;;;;4948444;28;20026;-83
2023/09/15 03:19:50;;;;;;;;;;;10.00;99.90;;;;;;4934617;28;20378;-83
2023/09/15 03:22:16;;;;;;;;;;;10.00;99.90;;;;;;4934944;29;20018;-83
2023/09/15 03:24:42;;;;;;;;;;;10.00;99.90;;;;;;4935757;29;19926;-83
2023/09/15 03:27:08;;;;;;;;;;;10.00;99.90;;;;;;4935989;29;19934;-83
2023/09/15 03:29:34;;;;;;;;;;;10.00;99.90;;;;;;4935340;29;20305;-83
2023/09/15 03:32:00;;;;;;;;;;;10.00;99.90;;;;;;4934128;29;19934;-83
2023/09/15 03:34:25;;;;;;;;;;;9.90;99.90;;;;;;4934920;29;19927;-83
2023/09/15 03:36:51;;;;;;;;;;;9.90;99.90;;;;;;4935353;29;19927;-83
2023/09/15 03:39:17;;;;;;;;;;;9.90;99.90;;;;;;4935631;29;19927;-83
2023/09/15 03:41:43;;;;;;;;;;;9.90;99.90;;;;;;4935419;29;20389;-84
2023/09/15 03:44:08;;;;;;;;;;;9.90;99.90;;;;;;4942591;29;20309;-83
2023/09/15 03:46:34;;;;;;;;;;;9.90;99.90;;;;;;4936503;28;19927;-83
2023/09/15 03:49:01;;;;;;;;;;;9.90;99.90;;;;;;4931949;28;20429;-87
2023/09/15 03:51:26;;;;;;;;;;;9.90;99.90;;;;;;4935230;29;19927;-82
2023/09/15 03:53:52;;;;;;;;;;;9.90;99.90;;;;;;4935328;29;20298;-84
2023/09/15 03:56:18;;;;;;;;;;;9.90;99.90;;;;;;4934448;29;19930;-82
2023/09/15 03:58:43;;;;;;;;;;;9.90;99.90;;;;;;4934774;29;19927;-83
2023/09/15 04:01:09;;;;;;;;;;;9.80;99.90;;;;;;4947172;28;20436;-82
2023/09/15 04:03:35;;;;;;;;;;;9.80;99.90;;;;;;4934350;29;19930;-82
2023/09/15 04:06:00;;;;;;;;;;;9.80;99.90;;;;;;4934167;29;19978;-88
2023/09/15 04:08:26;;;;;;;;;;;9.80;99.90;;;;;;4934892;29;19927;-82
2023/09/15 04:10:52;;;;;;;;;;;9.80;99.90;;;;;;4934052;29;19966;-83
2023/09/15 04:13:17;;;;;;;;;;;9.80;99.90;;;;;;4933664;28;19927;-82
2023/09/15 04:15:43;;;;;;;;;;;9.80;99.90;;;;;;4935133;29;20370;-83
2023/09/15 04:18:08;;;;;;;;;;;9.70;99.90;;;;;;4934871;29;19931;-83
2023/09/15 04:20:34;;;;;;;;;;;9.70;99.90;;;;;;4918215;29;19927;-82
2023/09/15 04:23:00;;;;;;;;;;;9.70;99.90;;;;;;4930099;29;19931;-83
2023/09/15 04:25:25;;;;;;;;;;;9.70;99.90;;;;;;4932868;29;20322;-82
2023/09/15 04:27:51;;;;;;;;;;;9.70;99.90;;;;;;4934057;29;19926;-83
2023/09/15 04:30:16;;;;;;;;;;;9.80;99.90;;;;;;4933261;29;19934;-82
2023/09/15 04:32:42;;;;;;;;;;;9.70;99.90;;;;;;4931624;29;19965;-83
2023/09/15 04:35:09;;;;;;;;;;;9.80;99.90;;;;;;4928508;29;19958;-82
2023/09/15 04:37:35;;;;;;;;;;;9.80;99.90;;;;;;4922157;29;19927;-86
2023/09/15 04:40:02;;;;;;;;;;;9.70;99.90;;;;;;4935051;28;19942;-83
2023/09/15 04:42:28;;;;;;;;;;;9.70;99.90;;;;;;4938298;29;20358;-82
2023/09/15 04:44:54;;;;;;;;;;;9.80;99.90;;;;;;4934686;29;20004;-84
2023/09/15 04:47:30;;;;;;;;;;;9.70;99.90;;;;;;4934038;29;20017;-87
2023/09/15 04:49:55;;;;;;;;;;;9.70;99.90;;;;;;4933312;29;19931;-83
2023/09/15 04:52:21;;;;;;;;;;;9.70;99.90;;;;;;4947581;29;19926;-82
2023/09/15 04:54:46;;;;;;;;;;;9.70;99.90;;;;;;4934592;28;20378;-85
2023/09/15 04:57:12;;;;;;;;;;;9.70;99.90;;;;;;4917887;29;19933;-82
2023/09/15 04:59:38;;;;;;;;;;;9.70;99.90;;;;;;4932125;29;19986;-84
2023/09/15 05:02:06;;;;;;;;;;;9.60;99.90;;;;;;4934431;29;19939;-83
2023/09/15 05:04:32;;;;;;;;;;;9.60;99.90;;;;;;4934354;28;19931;-82
2023/09/15 05:06:58;;;;;;;;;;;9.70;99.90;;;;;;4931138;29;19927;-83
2023/09/15 05:09:24;;;;;;;;;;;9.70;99.90;;;;;;4927582;29;20005;-82
2023/09/15 05:11:52;;;;;;;;;;;9.70;99.90;;;;;;4932307;29;19933;-83
2023/09/15 05:14:18;;;;;;;;;;;9.70;99.90;;;;;;4933920;29;19957;-85
2023/09/15 05:16:44;;;;;;;;;;;9.70;99.90;;;;;;4933613;29;19931;-82
2023/09/15 05:19:09;;;;;;;;;;;9.60;99.90;;;;;;4934050;28;19927;-82
2023/09/15 05:21:35;;;;;;;;;;;9.60;99.90;;;;;;4932716;29;19926;-84
2023/09/15 05:24:01;;;;;;;;;;;9.60;99.90;;;;;;4932116;29;19930;-84
2023/09/15 05:26:27;;;;;;;;;;;9.60;99.90;;;;;;4933908;28;19934;-83
2023/09/15 05:28:52;;;;;;;;;;;9.60;99.90;;;;;;4933831;29;19953;-83
2023/09/15 05:31:20;;;;;;;;;;;9.60;99.90;;;;;;4933368;29;19927;-83
2023/09/15 05:33:45;;;;;;;;;;;9.70;99.90;;;;;;4932503;29;20559;-82
2023/09/15 05:36:11;;;;;;;;;;;9.70;99.90;;;;;;4931324;29;19927;-83
2023/09/15 05:38:37;;;;;;;;;;;9.70;99.90;;;;;;4932533;28;20327;-83
2023/09/15 05:41:03;;;;;;;;;;;9.70;99.90;;;;;;4930787;29;20382;-89
2023/09/15 05:43:28;;;;;;;;;;;9.70;99.90;;;;;;4936043;29;19927;-82
2023/09/15 05:45:56;;;;;;;;;;;9.80;99.90;;;;;;4936529;28;19980;-82
2023/09/15 05:48:23;;;;;;;;;;;9.80;99.90;;;;;;4922957;28;19942;-84
2023/09/15 05:50:50;;;;;;;;;;;9.80;99.90;;;;;;4929763;29;19926;-83
2023/09/15 05:53:15;;;;;;;;;;;9.80;99.90;;;;;;4939207;29;19926;-83
2023/09/15 05:55:41;;;;;;;;;;;9.90;99.90;;;;;;4934966;28;19938;-85
2023/09/15 05:58:06;;;;;;;;;;;9.90;99.90;;;;;;4939414;28;19931;-83
2023/09/15 06:00:32;;;;;;;;;;;9.90;99.90;;;;;;4930827;29;19953;-84
2023/09/15 06:02:58;;;;;;;;;;;9.90;99.90;;;;;;4930512;29;19931;-84
2023/09/15 06:05:25;;;;;;;;;;;10.00;99.90;;;;;;4933328;29;19934;-84
2023/09/15 06:07:51;;;;;;;;;;;10.00;99.90;;;;;;4931771;29;20378;-85
2023/09/15 06:10:17;;;;;;;;;;;10.10;99.90;;;;;;4931733;28;20017;-84
2023/09/15 06:12:43;;;;;;;;;;;10.10;99.90;;;;;;4915851;29;20157;-85
2023/09/15 06:15:09;;;;;;;;;;;10.20;99.90;;;;;;4931950;28;20376;-84
2023/09/15 06:17:35;;;;;;;;;;;10.20;99.90;;;;;;4932968;29;19938;-84
2023/09/15 06:20:01;;;;;;;;;;;10.30;99.90;;;;;;4932540;28;20369;-84
2023/09/15 06:22:26;;;;;;;;;;;10.30;99.90;;;;;;4932044;29;19938;-84
2023/09/15 06:24:52;;;;;;;;;;;10.40;99.90;;;;;;4932552;29;19934;-84
2023/09/15 06:27:18;;;;;;;;;;;10.40;99.90;;;;;;4930874;29;19933;-84
2023/09/15 06:29:44;;;;;;;;;;;10.50;99.90;;;;;;4931163;29;19974;-84
2023/09/15 06:32:09;;;;;;;;;;;10.60;99.90;;;;;;4932683;29;20091;-84
2023/09/15 06:34:35;;;;;;;;;;;10.70;99.90;;;;;;4932693;29;19992;-83
2023/09/15 06:37:01;;;;;;;;;;;10.70;99.90;;;;;;4915782;28;19930;-85
2023/09/15 06:39:27;;;;;;;;;;;10.80;99.90;;;;;;4931246;29;19934;-85
2023/09/15 06:41:53;;;;;;;;;;;10.90;99.90;;;;;;4932083;29;19966;-84
2023/09/15 06:44:19;;;;;;;;;;;10.90;99.90;;;;;;4936171;29;19966;-84
2023/09/15 06:46:45;;;;;;;;;;;11.00;99.90;;;;;;4932636;29;19927;-84
2023/09/15 06:49:11;;;;;;;;;;;11.10;99.90;;;;;;4932198;29;19953;-85
2023/09/15 06:51:36;;;;;;;;;;;11.20;99.90;;;;;;4931941;29;19976;-85
2023/09/15 06:54:02;;;;;;;;;;;11.20;99.90;;;;;;4932220;29;20308;-84
2023/09/15 06:56:28;;;;;;;;;;;11.30;99.90;;;;;;4931386;29;19934;-83
2023/09/15 06:58:53;;;;;;;;;;;11.40;99.90;;;;;;4931999;29;19927;-84
2023/09/15 07:01:19;;;;;;;;;;;11.40;99.90;;;;;;4931838;28;20297;-85
2023/09/15 07:03:45;;;;;;;;;;;11.50;99.90;;;;;;4929223;28;19927;-83
2023/09/15 07:06:10;;;;;;;;;;;11.60;99.90;;;;;;4934299;29;20037;-84
2023/09/15 07:08:36;;;;;;;;;;;11.80;99.90;;;;;;4936030;29;19927;-84
2023/09/15 07:11:02;;;;;;;;;;;12.00;99.90;;;;;;4938716;28;19934;-84
2023/09/15 07:13:27;;;;;;;;;;;12.30;99.90;;;;;;4966905;28;19934;-84
2023/09/15 07:15:53;;;;;;;;;;;13.00;99.90;;;;;;4930391;29;19933;-84
2023/09/15 07:18:18;;;;;;;;;;;13.80;99.90;;;;;;4932140;28;19980;-85
2023/09/15 07:20:44;;;;;;;;;;;14.70;99.90;;;;;;4936463;29;19926;-84
2023/09/15 07:23:10;;;;;;;;;;;15.40;99.90;;;;;;4935064;28;19933;-87
2023/09/15 07:25:35;;;;;;;;;;;16.10;99.90;;;;;;4929130;29;20290;-89
2023/09/15 07:28:01;;;;;;;;;;;16.80;99.90;;;;;;4912779;29;19935;-84
2023/09/15 07:30:27;;;;;;;;;;;17.40;99.90;;;;;;4929759;28;20325;-84
2023/09/15 07:32:52;;;;;;;;;;;17.90;99.90;;;;;;4914376;28;19927;-84
2023/09/15 07:35:18;;;;;;;;;;;18.30;99.90;;;;;;4931150;29;20018;-84
2023/09/15 07:37:43;;;;;;;;;;;18.70;99.90;;;;;;4931022;29;20572;-86
2023/09/15 07:40:09;;;;;;;;;;;19.10;99.90;;;;;;4928278;29;20319;-84
2023/09/15 07:42:35;;;;;;;;;;;19.40;99.90;;;;;;4926985;29;20049;-84
2023/09/15 07:45:01;;;;;;;;;;;19.70;99.90;;;;;;4934851;29;20304;-84
2023/09/15 07:47:27;;;;;;;;;;;19.90;99.90;;;;;;4919290;29;19927;-85
2023/09/15 07:49:53;;;;;;;;;;;20.10;99.90;;;;;;4936449;29;19933;-84
2023/09/15 07:52:19;;;;;;;;;;;20.10;99.90;;;;;;4929229;28;19949;-85
2023/09/15 07:54:46;;;;;;;;;;;20.20;99.90;;;;;;4931044;29;19981;-92
2023/09/15 07:57:12;;;;;;;;;;;20.20;99.90;;;;;;4933859;28;20476;-85
2023/09/15 07:59:37;;;;;;;;;;;20.40;99.90;;;;;;4929261;29;19927;-85
2023/09/15 08:02:06;;;;;;;;;;;20.50;99.90;;;;;;4931104;29;19930;-84
2023/09/15 08:04:32;;;;;;;;;;;20.50;99.90;;;;;;4941544;28;19933;-83
2023/09/15 08:06:57;;;;;;;;;;;20.80;99.90;;;;;;4935018;29;20018;-85
2023/09/15 08:09:23;;;;;;;;;;;21.00;99.90;;;;;;4938051;28;19927;-86
2023/09/15 08:11:49;;;;;;;;;;;21.00;99.90;;;;;;4924266;28;19927;-86
2023/09/15 08:14:14;;;;;;;;;;;21.00;99.90;;;;;;4932264;28;19985;-86
2023/09/15 08:16:40;;;;;;;;;;;21.00;99.90;;;;;;4934070;28;19927;-86
2023/09/15 08:19:06;;;;;;;;;;;21.00;99.90;;;;;;4919752;28;21755;-86
2023/09/15 08:21:32;;;;;;;;;;;21.10;99.90;;;;;;4936230;28;19978;-86
2023/09/15 08:23:58;;;;;;;;;;;21.20;99.90;;;;;;4915931;29;19952;-88
2023/09/15 08:26:25;;;;;;;;;;;21.30;99.90;;;;;;4928980;29;19977;-87
2023/09/15 08:28:50;;;;;;;;;;;21.30;99.90;;;;;;4922532;29;19976;-87
2023/09/15 08:31:16;;;;;;;;;;;21.30;99.90;;;;;;4920099;28;19926;-84
2023/09/15 08:33:41;;;;;;;;;;;21.30;99.90;;;;;;4917442;29;19973;-85
2023/09/15 08:36:07;;;;;;;;;;;21.40;99.90;;;;;;4934463;29;19931;-86
2023/09/15 08:38:33;;;;;;;;;;;21.20;99.90;;;;;;4937044;29;20280;-84
2023/09/15 08:41:08;;;;;;;;;;;21.20;99.90;;;;;;4933255;29;19954;-84
2023/09/15 08:43:34;;;;;;;;;;;21.30;99.90;;;;;;4933173;29;20908;-86
2023/09/15 08:46:02;;;;;;;;;;;21.50;99.90;;;;;;4936353;29;19927;-85
2023/09/15 08:48:29;;;;;;;;;;;21.70;99.90;;;;;;4941366;28;19927;-85
2023/09/15 08:50:55;;;;;;;;;;;22.00;99.90;;;;;;4934152;29;19969;-83
2023/09/15 08:53:21;;;;;;;;;;;22.10;99.90;;;;;;4933023;29;20353;-85
2023/09/15 08:55:47;;;;;;;;;;;21.90;99.90;;;;;;4932433;29;19985;-85
2023/09/15 08:58:13;;;;;;;;;;;21.80;99.90;;;;;;4937789;28;19953;-89
2023/09/15 09:00:39;;;;;;;;;;;21.90;99.90;;;;;;4933169;29;20401;-84
2023/09/15 09:03:04;;;;;;;;;;;22.10;99.90;;;;;;4932750;29;19977;-84
2023/09/15 09:05:31;;;;;;;;;;;22.40;99.90;;;;;;4930964;29;19927;-85
2023/09/15 09:07:56;;;;;;;;;;;22.60;99.90;;;;;;4932666;28;19934;-84
2023/09/15 09:10:23;;;;;;;;;;;22.80;99.90;;;;;;4933379;29;19927;-84
2023/09/15 09:12:49;;;;;;;;;;;22.90;99.90;;;;;;4932435;29;19926;-87
2023/09/15 09:15:15;;;;;;;;;;;23.10;99.90;;;;;;4942577;28;19931;-85
2023/09/15 09:17:41;;;;;;;;;;;23.30;99.90;;;;;;4933959;29;19930;-85
2023/09/15 09:20:08;;;;;;;;;;;23.40;99.90;;;;;;4934259;29;20251;-84
2023/09/15 09:22:34;;;;;;;;;;;23.50;99.90;;;;;;4933875;29;19927;-84
2023/09/15 09:25:00;;;;;;;;;;;23.70;99.90;;;;;;4934313;28;19974;-85
2023/09/15 09:27:33;;;;;;;;;;;23.90;99.90;;;;;;4931764;29;19969;-84
2023/09/15 09:29:58;;;;;;;;;;;23.90;99.90;;;;;;4931332;29;19927;-84
2023/09/15 09:32:24;;;;;;;;;;;23.90;99.90;;;;;;4932779;29;19986;-85
2023/09/15 09:34:50;;;;;;;;;;;24.00;99.90;;;;;;4931942;29;19927;-85
2023/09/15 09:37:23;;;;;;;;;;;24.00;99.90;;;;;;4933638;29;19937;-85
2023/09/15 09:39:48;;;;;;;;;;;24.10;99.90;;;;;;4931060;28;20038;-85
2023/09/15 09:42:14;;;;;;;;;;;24.00;99.90;;;;;;4932763;29;20405;-84
2023/09/15 09:44:39;;;;;;;;;;;24.10;99.90;;;;;;4935009;28;19926;-85
2023/09/15 09:47:09;;;;;;;;;;;24.10;99.90;;;;;;4916086;29;20068;-84
2023/09/15 09:49:35;;;;;;;;;;;24.30;99.90;;;;;;4930132;28;20629;-85
2023/09/15 09:52:00;;;;;;;;;;;24.50;99.90;;;;;;4933592;29;19927;-84
2023/09/15 09:54:27;;;;;;;;;;;24.70;99.70;;;;;;4942276;28;20018;-84
2023/09/15 09:56:53;;;;;;;;;;;24.80;99.90;;;;;;4933484;29;19952;-84
2023/09/15 09:59:21;;;;;;;;;;;24.90;99.60;;;;;;4929424;29;19935;-85
2023/09/15 10:01:46;;;;;;;;;;;25.00;99.30;;;;;;4932682;29;20377;-84
2023/09/15 10:04:12;;;;;;;;;;;24.90;99.30;;;;;;4932525;29;19962;-84
2023/09/15 10:06:38;;;;;;;;;;;24.90;99.70;;;;;;4932690;29;20381;-85
2023/09/15 10:09:07;;;;;;;;;;;24.60;98.40;;;;;;4934112;29;19938;-84
2023/09/15 10:11:33;;;;;;;;;;;24.40;99.90;;;;;;4930694;29;20029;-85
2023/09/15 10:14:00;;;;;;;;;;;24.10;99.90;;;;;;4933202;29;19927;-84
2023/09/15 10:16:25;;;;;;;;;;;23.90;99.60;;;;;;4932606;28;19930;-85
2023/09/15 10:18:51;;;;;;;;;;;23.60;98.50;;;;;;4947120;28;20381;-84
2023/09/15 10:21:17;;;;;;;;;;;23.40;98.60;;;;;;4935134;28;19926;-85
2023/09/15 10:23:43;;;;;;;;;;;23.20;97.20;;;;;;4931455;28;19927;-88
2023/09/15 10:26:10;;;;;;;;;;;22.90;99.90;;;;;;4982998;28;19938;-85
2023/09/15 10:28:35;;;;;;;;;;;22.80;99.90;;;;;;4931862;29;19996;-86
2023/09/15 10:31:01;;;;;;;;;;;22.70;99.90;;;;;;4930805;28;19978;-85
2023/09/15 10:33:27;;;;;;;;;;;22.60;99.10;;;;;;4933951;29;19938;-86
2023/09/15 10:35:59;;;;;;;;;;;22.50;99.90;;;;;;4932846;29;19934;-85
2023/09/15 10:38:28;;;;;;;;;;;22.40;99.90;;;;;;4931534;28;19934;-86
2023/09/15 10:40:54;;;;;;;;;;;22.40;99.90;;;;;;4929744;28;20301;-83
2023/09/15 10:43:20;;;;;;;;;;;22.50;99.90;;;;;;4927368;29;20366;-84
2023/09/15 10:46:02;;;;;;;;;;;22.60;99.90;;;;;;4927998;29;19937;-86
2023/09/15 10:48:38;;;;;;;;;;;22.50;99.90;;;;;;4932445;28;20427;-85
2023/09/15 10:51:07;;;;;;;;;;;22.50;99.90;;;;;;4931899;28;19972;-84
2023/09/15 10:53:46;;;;;;;;;;;22.50;99.90;;;;;;4915720;29;19926;-84
2023/09/15 10:56:12;;;;;;;;;;;22.50;99.90;;;;;;4929010;29;20354;-83
2023/09/15 10:58:38;;;;;;;;;;;22.60;99.90;;;;;;4931011;29;19931;-85
2023/09/15 11:01:05;;;;;;;;;;;22.50;99.90;;;;;;4930926;29;19930;-82
2023/09/15 11:03:31;;;;;;;;;;;22.50;99.90;;;;;;4932325;29;19933;-84
2023/09/15 11:05:58;;;;;;;;;;;22.50;99.90;;;;;;4937435;28;20389;-85
2023/09/15 11:08:24;;;;;;;;;;;22.30;99.30;;;;;;4931160;29;19933;-86
2023/09/15 11:11:02;;;;;;;;;;;22.30;99.90;;;;;;4931616;29;19981;-85
2023/09/15 11:13:28;;;;;;;;;;;22.10;99.90;;;;;;4930988;29;19931;-84
2023/09/15 11:15:54;;;;;;;;;;;22.00;99.90;;;;;;4931837;29;19927;-84
2023/09/15 11:18:19;;;;;;;;;;;22.00;99.90;;;;;;4936406;28;20614;-83
2023/09/15 11:20:45;;;;;;;;;;;22.00;99.90;;;;;;4929129;29;19927;-84
2023/09/15 11:23:11;;;;;;;;;;;22.10;99.90;;;;;;4932236;29;19943;-84
2023/09/15 11:25:36;;;;;;;;;;;22.20;99.90;;;;;;4930976;29;19927;-85
2023/09/15 11:28:03;;;;;;;;;;;22.20;99.90;;;;;;4933776;28;19977;-83
2023/09/15 11:30:29;;;;;;;;;;;22.20;99.90;;;;;;4928235;29;19941;-87
2023/09/15 11:32:57;;;;;;;;;;;22.20;99.90;;;;;;4928954;29;20002;-83
2023/09/15 11:35:24;;;;;;;;;;;22.30;99.00;;;;;;4932073;29;19927;-83
2023/09/15 11:37:50;;;;;;;;;;;22.40;99.90;;;;;;4935175;29;19927;-83
2023/09/15 11:40:20;;;;;;;;;;;22.50;99.90;;;;;;4935259;29;19934;-83
2023/09/15 11:42:56;;;;;;;;;;;22.60;99.90;;;;;;4932894;29;19977;-83
2023/09/15 11:45:25;;;;;;;;;;;22.80;99.90;;;;;;4976458;28;19929;-83
2023/09/15 11:47:50;;;;;;;;;;;23.00;99.90;;;;;;4942561;28;19934;-84
2023/09/15 11:50:16;;;;;;;;;;;23.00;99.90;;;;;;4934998;29;20352;-84
2023/09/15 11:52:42;;;;;;;;;;;23.10;99.90;;;;;;4934250;29;20045;-84
2023/09/15 11:55:20;;;;;;;;;;;23.00;98.30;;;;;;4932159;29;20386;-87
2023/09/15 11:57:46;;;;;;;;;;;23.00;99.90;;;;;;4931345;29;19926;-85
2023/09/15 12:00:14;;;;;;;;;;;23.00;99.90;;;;;;4930048;29;19927;-84
2023/09/15 12:02:40;;;;;;;;;;;22.90;96.80;;;;;;4934841;28;20021;-85
2023/09/15 12:05:05;;;;;;;;;;;22.80;98.10;;;;;;4935975;29;20014;-84
2023/09/15 12:07:31;;;;;;;;;;;22.70;99.90;;;;;;4934765;28;19938;-85
2023/09/15 12:09:56;;;;;;;;;;;22.60;98.80;;;;;;4934162;29;19969;-83
2023/09/15 12:12:23;;;;;;;;;;;22.40;99.60;;;;;;4934847;29;19927;-83
2023/09/15 12:14:49;;;;;;;;;;;22.20;99.70;;;;;;4934735;29;20293;-83
2023/09/15 12:17:15;;;;;;;;;;;22.20;99.90;;;;;;4934341;29;19927;-83
2023/09/15 12:19:40;;;;;;;;;;;22.30;99.80;;;;;;4939900;28;20001;-82
2023/09/15 12:22:06;;;;;;;;;;;22.50;99.90;;;;;;4934640;29;19942;-84
2023/09/15 12:24:31;;;;;;;;;;;22.60;99.90;;;;;;4934329;29;19926;-86
2023/09/15 12:27:00;;;;;;;;;;;22.60;99.90;;;;;;4932253;29;20030;-84
2023/09/15 12:29:27;;;;;;;;;;;22.70;99.80;;;;;;4943442;28;19953;-83
2023/09/15 12:31:53;;;;;;;;;;;22.70;99.00;;;;;;4936680;28;19938;-82
2023/09/15 12:34:19;;;;;;;;;;;22.60;97.90;;;;;;4931805;29;19981;-84
2023/09/15 12:36:48;;;;;;;;;;;22.70;98.00;;;;;;4933484;29;19961;-84
2023/09/15 12:39:14;;;;;;;;;;;22.70;98.80;;;;;;4937470;28;20333;-83
2023/09/15 12:41:40;;;;;;;;;;;22.80;99.50;;;;;;4975774;28;19925;-83
2023/09/15 12:44:06;;;;;;;;;;;22.90;99.90;;;;;;4935379;28;19927;-83
2023/09/15 12:46:32;;;;;;;;;;;22.90;97.90;;;;;;4934513;29;19937;-83
2023/09/15 12:48:57;;;;;;;;;;;23.00;99.00;;;;;;4930628;29;19927;-83
2023/09/15 12:51:23;;;;;;;;;;;22.90;98.50;;;;;;4931338;28;19934;-82
2023/09/15 12:53:48;;;;;;;;;;;22.90;99.90;;;;;;4942696;28;19930;-85
2023/09/15 12:56:14;;;;;;;;;;;22.90;96.90;;;;;;4938303;28;19930;-88
2023/09/15 12:58:39;;;;;;;;;;;22.90;98.50;;;;;;4915509;29;19984;-85
2023/09/15 13:01:05;;;;;;;;;;;22.80;99.20;;;;;;4933919;28;19927;-83
2023/09/15 13:03:31;;;;;;;;;;;22.80;99.60;;;;;;4930965;28;19931;-83
2023/09/15 13:05:56;;;;;;;;;;;23.00;99.90;;;;;;4934439;29;19931;-82
2023/09/15 13:08:22;;;;;;;;;;;23.10;99.40;;;;;;4932784;29;19927;-83
2023/09/15 13:10:47;;;;;;;;;;;23.20;99.90;;;;;;4933210;29;19930;-86
2023/09/15 13:13:14;;;;;;;;;;;23.10;98.20;;;;;;4933263;29;19934;-83
2023/09/15 13:15:40;;;;;;;;;;;23.00;99.10;;;;;;4934191;29;19934;-83
2023/09/15 13:18:06;;;;;;;;;;;22.90;99.70;;;;;;4934063;29;19953;-82
2023/09/15 13:20:32;;;;;;;;;;;22.90;98.60;;;;;;4932242;29;20025;-83
2023/09/15 13:22:57;;;;;;;;;;;22.90;99.00;;;;;;4932874;29;20009;-83
2023/09/15 13:25:23;;;;;;;;;;;22.90;98.60;;;;;;4933267;28;19927;-83
2023/09/15 13:27:49;;;;;;;;;;;22.90;99.50;;;;;;4933893;29;19927;-83
2023/09/15 13:30:14;;;;;;;;;;;22.80;97.90;;;;;;4932470;29;19966;-84
2023/09/15 13:32:40;;;;;;;;;;;22.90;99.90;;;;;;4934022;29;19926;-83
2023/09/15 13:35:06;;;;;;;;;;;22.80;99.90;;;;;;4955678;28;19925;-84
2023/09/15 13:37:32;;;;;;;;;;;22.70;99.70;;;;;;4933924;29;19938;-84
2023/09/15 13:39:58;;;;;;;;;;;22.60;99.00;;;;;;4932898;29;19927;-83
2023/09/15 13:42:31;;;;;;;;;;;22.60;99.90;;;;;;4932810;29;20390;-85
2023/09/15 13:44:57;;;;;;;;;;;22.60;99.90;;;;;;4933361;29;19926;-83
2023/09/15 13:47:23;;;;;;;;;;;22.60;99.10;;;;;;4931491;28;19926;-84
2023/09/15 13:49:49;;;;;;;;;;;22.60;99.90;;;;;;4933632;29;19938;-84
2023/09/15 13:52:14;;;;;;;;;;;22.60;99.90;;;;;;4932808;29;20493;-83
2023/09/15 13:54:40;;;;;;;;;;;22.80;99.80;;;;;;4916690;29;19973;-83
2023/09/15 13:57:05;;;;;;;;;;;22.80;99.90;;;;;;4933650;29;19927;-83
2023/09/15 13:59:31;;;;;;;;;;;22.80;96.20;;;;;;4929487;29;19935;-83
2023/09/15 14:01:56;;;;;;;;;;;22.70;98.40;;;;;;4929787;29;20275;-87
2023/09/15 14:04:22;;;;;;;;;;;22.60;99.50;;;;;;4931038;28;19927;-83
2023/09/15 14:06:48;;;;;;;;;;;22.50;98.90;;;;;;4934733;28;19952;-83
2023/09/15 14:09:14;;;;;;;;;;;22.40;99.50;;;;;;4933108;28;20065;-82
2023/09/15 14:11:42;;;;;;;;;;;22.30;99.80;;;;;;4932218;29;19931;-83
2023/09/15 14:14:08;;;;;;;;;;;22.30;99.90;;;;;;4932699;29;20394;-83